Advent, West Virginia
Current Conditions -  °F | °C
As of 4:54 AM on Monday 22 Dec 2014 (Local Time) from KCRW Reporting Station
Broken Clouds Broken Clouds  
Wind Chill:   Ceiling: 4700
Heat Index:   Visibility: 10mi
Dew Point: -3°   Wind: 0mph
Humidity: 82%   Direction: NA
Pressure: 30.07"   Gusts: NA
Location:  38.63°N, 81.57°W
Report Text: KCRW 220954Z 00000KT 10SM BKN047 00/M03 A3007 RMK AO2 SLP188 T00001028
Loading
Personal Weather Stations






























Interactive Weather Map New forecast layout! Learn more

10-Day Weather Forecast

Advertisements
Track Severe Weather on mobile